Time;durP1;ratioP1;P1;durP2;ratioP2;P2;SDS_P1;SDS_P2;PMS_P1;PMS_P2;Temp;Humidity;BMP_temperature;BMP_pressure;BME280_temperature;BME280_humidity;BME280_pressure;Samples;Min_cycle;Max_cycle;Signal;HPM_P1;HPM_P2
2022/05/07 00:00:29;;;;;;;0.90;0.80;;;12.00;99.90;;;;;;5073745;28;20039;-75
2022/05/07 00:02:55;;;;;;;1.42;0.77;;;12.00;99.90;;;;;;5076126;28;20533;-75
2022/05/07 00:05:21;;;;;;;0.70;0.70;;;12.00;99.90;;;;;;5073889;28;20028;-75
2022/05/07 00:07:47;;;;;;;1.13;0.80;;;12.00;99.90;;;;;;5078182;28;20047;-75
2022/05/07 00:10:13;;;;;;;0.73;0.70;;;12.10;99.90;;;;;;5074424;28;20036;-75
2022/05/07 00:12:39;;;;;;;1.10;0.70;;;12.00;99.90;;;;;;5080457;28;20035;-75
2022/05/07 00:15:05;;;;;;;1.58;0.90;;;12.00;99.90;;;;;;5080511;28;20107;-76
2022/05/07 00:20:15;;;;;;;0.90;0.70;;;12.10;99.90;;;;;;5081232;28;20051;-76
2022/05/07 00:22:41;;;;;;;0.95;0.75;;;12.20;99.90;;;;;;5087881;28;20025;-76
2022/05/07 00:25:07;;;;;;;1.80;0.95;;;12.20;99.90;;;;;;5078418;28;20051;-76
2022/05/07 00:27:33;;;;;;;2.10;0.80;;;12.20;99.90;;;;;;5085401;28;20017;-76
2022/05/07 00:29:58;;;;;;;2.60;1.63;;;12.20;99.90;;;;;;5102898;22;20075;-77
2022/05/07 00:32:24;;;;;;;1.35;0.75;;;12.20;99.90;;;;;;5072158;28;20071;-78
2022/05/07 00:34:50;;;;;;;0.60;0.60;;;12.20;99.90;;;;;;5073033;28;20383;-77
2022/05/07 00:37:15;;;;;;;0.55;0.50;;;12.30;99.90;;;;;;5073252;28;20029;-78
2022/05/07 00:39:41;;;;;;;2.10;0.90;;;12.30;99.90;;;;;;5075086;28;20438;-77
2022/05/07 00:42:07;;;;;;;0.77;0.77;;;12.30;99.90;;;;;;5090031;28;20538;-78
2022/05/07 00:44:34;;;;;;;0.60;0.60;;;12.30;99.90;;;;;;5091443;28;20035;-78
2022/05/07 00:47:14;;;;;;;1.55;1.00;;;12.20;99.90;;;;;;5089809;28;20024;-78
2022/05/07 00:49:43;;;;;;;0.73;0.73;;;12.20;99.90;;;;;;5098051;28;20024;-78
2022/05/07 00:52:09;;;;;;;1.95;0.85;;;12.10;99.90;;;;;;5073109;28;20072;-77
2022/05/07 00:54:35;;;;;;;1.08;0.85;;;12.10;99.90;;;;;;5091343;28;20032;-77
2022/05/07 00:57:02;;;;;;;1.85;0.70;;;12.00;99.90;;;;;;5090109;28;20020;-78
2022/05/07 00:59:27;;;;;;;0.93;0.75;;;12.00;99.90;;;;;;5090292;28;20507;-77
2022/05/07 01:01:53;;;;;;;0.80;0.80;;;11.90;99.90;;;;;;5089563;28;20059;-77
2022/05/07 01:04:19;;;;;;;0.88;0.70;;;11.90;99.90;;;;;;5091458;28;20111;-78
2022/05/07 01:06:45;;;;;;;1.17;0.77;;;11.80;99.90;;;;;;5089796;28;20432;-77
2022/05/07 01:09:11;;;;;;;1.00;1.00;;;11.80;99.90;;;;;;5090855;28;20031;-77
2022/05/07 01:11:37;;;;;;;1.23;0.82;;;11.70;99.90;;;;;;5090236;28;20490;-78
2022/05/07 01:14:03;;;;;;;0.60;0.60;;;11.70;99.90;;;;;;5091185;28;20138;-77
2022/05/07 01:16:29;;;;;;;2.45;1.00;;;11.60;99.90;;;;;;5090517;28;20111;-77
2022/05/07 01:18:54;;;;;;;1.35;0.88;;;11.60;99.90;;;;;;5091116;28;20024;-77
2022/05/07 01:21:20;;;;;;;0.85;0.77;;;11.60;99.90;;;;;;5087349;28;20025;-77
2022/05/07 01:23:49;;;;;;;1.50;0.90;;;11.40;99.90;;;;;;5087138;28;20024;-77
2022/05/07 01:26:20;;;;;;;0.70;0.70;;;11.30;99.90;;;;;;5090552;28;20028;-77
2022/05/07 01:28:46;;;;;;;1.73;0.85;;;11.20;99.90;;;;;;5096848;28;20016;-77
2022/05/07 01:31:12;;;;;;;1.08;0.73;;;11.10;99.90;;;;;;5090373;28;20040;-77
2022/05/07 01:33:38;;;;;;;1.00;0.77;;;11.10;99.90;;;;;;5090400;28;20487;-77
2022/05/07 01:36:11;;;;;;;1.33;0.80;;;11.00;99.90;;;;;;5097694;28;20027;-77
2022/05/07 01:38:37;;;;;;;0.55;0.55;;;11.00;99.90;;;;;;5090179;28;20025;-77
2022/05/07 01:41:04;;;;;;;3.17;1.00;;;10.80;99.90;;;;;;5091046;28;20079;-77
2022/05/07 01:43:33;;;;;;;0.95;0.52;;;10.70;99.90;;;;;;5074844;28;20025;-77
2022/05/07 01:45:59;;;;;;;2.72;1.02;;;10.60;99.90;;;;;;5089904;28;20051;-77
2022/05/07 01:48:25;;;;;;;0.68;0.68;;;10.60;99.90;;;;;;5089848;28;20515;-77
2022/05/07 01:50:51;;;;;;;0.93;0.65;;;10.50;99.90;;;;;;5090273;28;20024;-77
2022/05/07 01:53:17;;;;;;;0.90;0.80;;;10.40;99.90;;;;;;5083390;28;20032;-78
2022/05/07 01:55:46;;;;;;;1.10;1.00;;;10.40;99.90;;;;;;5090654;28;20123;-77
2022/05/07 01:58:12;;;;;;;1.20;0.90;;;10.50;99.90;;;;;;5090107;28;20035;-77
2022/05/07 02:00:41;;;;;;;2.05;1.02;;;10.50;99.90;;;;;;5090316;28;20400;-77
2022/05/07 02:03:07;;;;;;;2.97;0.80;;;10.50;99.90;;;;;;5089827;28;20026;-77
2022/05/07 02:05:33;;;;;;;1.65;0.90;;;10.50;99.90;;;;;;5088632;28;20028;-77
2022/05/07 02:07:59;;;;;;;1.88;0.80;;;10.50;99.90;;;;;;5089736;28;20031;-77
2022/05/07 02:10:25;;;;;;;1.15;1.02;;;10.50;99.90;;;;;;5090274;28;20035;-78
2022/05/07 02:12:52;;;;;;;2.72;1.15;;;10.50;99.90;;;;;;5093026;28;20113;-77
2022/05/07 02:15:18;;;;;;;1.30;1.08;;;10.60;99.90;;;;;;5093897;28;20012;-77
2022/05/07 02:17:44;;;;;;;1.15;1.05;;;10.50;99.90;;;;;;5093638;28;20031;-77
2022/05/07 02:20:10;;;;;;;0.68;0.60;;;10.60;99.90;;;;;;5092987;28;20415;-77
2022/05/07 02:22:36;;;;;;;1.17;0.85;;;10.60;99.90;;;;;;5093065;28;20086;-77
2022/05/07 02:25:03;;;;;;;0.75;0.60;;;10.60;99.90;;;;;;5093177;28;20578;-77
2022/05/07 02:27:29;;;;;;;1.00;1.00;;;10.50;99.90;;;;;;5092720;28;20032;-77
2022/05/07 02:29:55;;;;;;;0.90;0.70;;;10.50;99.90;;;;;;5109436;22;20061;-76
2022/05/07 02:32:20;;;;;;;1.83;1.08;;;10.50;99.90;;;;;;5071632;28;20032;-76
2022/05/07 02:34:46;;;;;;;1.05;0.90;;;10.50;99.90;;;;;;5073017;28;20028;-76
2022/05/07 02:37:12;;;;;;;1.52;0.90;;;10.40;99.90;;;;;;5072540;28;20068;-73
2022/05/07 02:39:38;;;;;;;1.65;1.00;;;10.50;99.90;;;;;;5073194;28;20066;-76
2022/05/07 02:44:49;;;;;;;0.70;0.50;;;10.40;99.90;;;;;;5083349;28;20067;-76
2022/05/07 02:47:15;;;;;;;1.13;1.02;;;10.50;99.90;;;;;;5085147;28;20032;-76
2022/05/07 02:49:40;;;;;;;0.98;0.90;;;10.50;99.90;;;;;;5080979;28;20075;-76
2022/05/07 02:52:07;;;;;;;0.75;0.70;;;10.60;99.90;;;;;;5087868;28;20020;-75
2022/05/07 02:54:33;;;;;;;2.47;1.17;;;10.60;99.90;;;;;;5085614;28;20027;-76
2022/05/07 02:56:58;;;;;;;1.75;1.10;;;10.60;99.90;;;;;;5079028;28;20166;-76
2022/05/07 02:59:24;;;;;;;1.20;0.88;;;10.70;99.90;;;;;;5091009;28;20469;-76
2022/05/07 03:01:50;;;;;;;0.98;0.80;;;10.70;99.90;;;;;;5084453;28;20016;-76
2022/05/07 03:04:16;;;;;;;1.00;0.90;;;10.70;99.90;;;;;;5080861;28;20389;-76
2022/05/07 03:06:42;;;;;;;1.45;1.20;;;10.80;99.90;;;;;;5088003;28;20020;-75
2022/05/07 03:09:07;;;;;;;2.53;0.98;;;10.80;99.90;;;;;;5080629;28;20021;-76
2022/05/07 03:11:34;;;;;;;0.82;0.82;;;10.90;99.90;;;;;;5083859;28;20054;-76
2022/05/07 03:14:03;;;;;;;1.48;1.10;;;10.80;99.90;;;;;;5082063;28;20495;-76
2022/05/07 03:16:30;;;;;;;1.23;1.08;;;10.90;99.90;;;;;;5080242;28;20048;-75
2022/05/07 03:18:55;;;;;;;1.75;1.20;;;10.80;99.90;;;;;;5085215;28;20016;-75
2022/05/07 03:21:21;;;;;;;0.80;0.77;;;10.80;99.90;;;;;;5083564;28;20023;-76
2022/05/07 03:23:47;;;;;;;1.83;1.10;;;10.80;99.90;;;;;;5084105;28;20042;-75
2022/05/07 03:26:13;;;;;;;3.08;1.10;;;10.80;99.90;;;;;;5084664;28;20031;-75
2022/05/07 03:28:39;;;;;;;1.52;0.98;;;10.90;99.90;;;;;;5078105;28;20035;-76
2022/05/07 03:31:06;;;;;;;1.05;0.95;;;10.90;99.90;;;;;;5095004;22;20447;-75
2022/05/07 03:33:32;;;;;;;1.42;1.00;;;11.00;99.90;;;;;;5052334;28;20064;-75
2022/05/07 03:35:58;;;;;;;1.15;0.80;;;11.10;99.90;;;;;;5052472;28;20060;-75
2022/05/07 03:38:24;;;;;;;2.30;0.95;;;11.10;99.90;;;;;;5051977;28;20070;-75
2022/05/07 03:40:50;;;;;;;2.15;1.10;;;11.20;99.90;;;;;;5051246;28;20017;-75
2022/05/07 03:43:16;;;;;;;2.15;1.15;;;11.20;99.90;;;;;;5051875;28;20020;-75
2022/05/07 03:45:42;;;;;;;1.73;0.95;;;11.20;99.90;;;;;;5036445;28;20552;-75
2022/05/07 03:48:09;;;;;;;2.58;1.20;;;11.20;99.90;;;;;;5051591;28;20473;-75
2022/05/07 03:50:35;;;;;;;2.08;1.00;;;11.30;99.90;;;;;;5044612;28;20037;-75
2022/05/07 03:55:45;;;;;;;1.55;1.00;;;11.30;99.90;;;;;;5052393;28;20067;-75
2022/05/07 03:58:15;;;;;;;2.90;1.23;;;11.30;99.90;;;;;;5051569;28;20057;-75
2022/05/07 04:00:43;;;;;;;1.58;1.00;;;11.30;99.90;;;;;;5050933;28;20520;-75
2022/05/07 04:03:10;;;;;;;2.15;0.90;;;11.30;99.90;;;;;;5051717;28;20067;-75
2022/05/07 04:05:36;;;;;;;2.55;1.85;;;11.30;99.90;;;;;;5052028;28;20036;-75
2022/05/07 04:08:02;;;;;;;1.58;0.93;;;11.30;99.90;;;;;;5050906;28;20052;-75
2022/05/07 04:10:28;;;;;;;1.30;1.15;;;11.30;99.90;;;;;;5051749;28;20552;-75
2022/05/07 04:12:54;;;;;;;1.13;1.00;;;11.40;99.90;;;;;;5040936;28;20026;-75
2022/05/07 04:15:21;;;;;;;2.33;1.30;;;11.40;99.90;;;;;;5051521;28;20029;-75
2022/05/07 04:17:48;;;;;;;1.30;1.10;;;11.50;99.90;;;;;;5058183;28;20036;-75
2022/05/07 04:20:14;;;;;;;3.28;1.15;;;11.50;99.90;;;;;;5051586;28;20024;-75
2022/05/07 04:22:40;;;;;;;3.33;1.05;;;11.40;99.90;;;;;;5055902;28;20374;-75
2022/05/07 04:25:08;;;;;;;1.58;1.13;;;11.50;99.90;;;;;;5044144;28;20067;-75
2022/05/07 04:27:33;;;;;;;2.03;1.20;;;11.50;99.90;;;;;;5051090;28;20021;-75
2022/05/07 04:30:00;;;;;;;2.08;1.00;;;11.50;99.90;;;;;;5078861;22;20005;-76
2022/05/07 04:32:26;;;;;;;1.30;1.20;;;11.50;99.90;;;;;;5090497;28;20028;-78
2022/05/07 04:34:52;;;;;;;1.58;1.00;;;11.40;99.90;;;;;;5089303;28;20385;-78
2022/05/07 04:37:19;;;;;;;1.10;1.00;;;11.40;99.90;;;;;;5091160;28;20030;-78
2022/05/07 04:39:46;;;;;;;1.95;1.20;;;11.40;99.90;;;;;;5089738;28;20020;-78
2022/05/07 04:42:12;;;;;;;3.10;1.40;;;11.40;99.90;;;;;;5070092;28;20120;-78
2022/05/07 04:44:37;;;;;;;1.45;1.00;;;11.40;99.90;;;;;;5071699;28;20100;-79
2022/05/07 04:47:04;;;;;;;2.15;1.08;;;11.50;99.90;;;;;;5085840;28;20441;-78
2022/05/07 04:49:30;;;;;;;2.85;1.38;;;11.50;99.90;;;;;;5070506;28;20052;-78
2022/05/07 04:51:56;;;;;;;1.63;1.25;;;11.50;99.90;;;;;;5069484;28;20020;-78
2022/05/07 04:54:22;;;;;;;1.77;1.10;;;11.40;99.90;;;;;;5071141;28;20056;-78
2022/05/07 04:56:48;;;;;;;1.10;1.00;;;11.50;99.90;;;;;;5069690;28;20032;-78
2022/05/07 04:59:15;;;;;;;3.22;1.63;;;11.50;99.90;;;;;;5071237;28;20020;-78
2022/05/07 05:01:41;;;;;;;1.55;1.40;;;11.50;99.90;;;;;;5070138;28;20037;-78
2022/05/07 05:04:07;;;;;;;3.28;1.30;;;11.50;99.90;;;;;;5071018;28;20103;-78
2022/05/07 05:06:33;;;;;;;1.20;1.10;;;11.50;99.90;;;;;;5070086;28;20143;-78
2022/05/07 05:08:58;;;;;;;3.00;1.58;;;11.60;99.90;;;;;;5065454;28;20081;-79
2022/05/07 05:11:25;;;;;;;2.55;1.30;;;11.70;99.90;;;;;;5074578;28;20029;-78
2022/05/07 05:13:51;;;;;;;2.22;1.30;;;11.80;99.90;;;;;;5070466;28;20654;-78
2022/05/07 05:16:16;;;;;;;3.33;1.40;;;11.90;99.90;;;;;;5069166;28;20131;-78
2022/05/07 05:18:42;;;;;;;1.40;1.20;;;11.90;99.90;;;;;;5063750;28;20025;-78
2022/05/07 05:21:08;;;;;;;2.80;1.10;;;12.00;99.90;;;;;;5070483;28;20616;-78
2022/05/07 05:23:34;;;;;;;1.73;1.30;;;11.90;99.90;;;;;;5070465;28;20029;-78
2022/05/07 05:25:59;;;;;;;3.22;1.70;;;11.80;99.90;;;;;;5070073;28;20077;-78
2022/05/07 05:28:25;;;;;;;1.60;1.20;;;11.80;99.90;;;;;;5070656;28;20475;-78
2022/05/07 05:30:51;;;;;;;1.73;1.40;;;11.70;99.90;;;;;;5070803;28;20051;-78
2022/05/07 05:33:21;;;;;;;1.40;1.30;;;11.60;99.90;;;;;;5069943;28;20028;-78
2022/05/07 05:35:47;;;;;;;3.17;1.58;;;11.50;99.90;;;;;;5070961;28;20027;-78
2022/05/07 05:38:13;;;;;;;2.35;1.63;;;11.50;99.90;;;;;;5070120;28;20527;-78
2022/05/07 05:40:41;;;;;;;2.05;1.40;;;11.50;99.90;;;;;;5070292;28;20028;-78
2022/05/07 05:43:06;;;;;;;1.67;1.42;;;11.40;99.90;;;;;;5070031;28;20021;-78
2022/05/07 05:45:32;;;;;;;2.75;1.45;;;11.50;99.90;;;;;;5070386;28;20371;-78
2022/05/07 05:47:58;;;;;;;1.80;1.40;;;11.50;99.90;;;;;;5072962;28;20021;-78
2022/05/07 05:50:23;;;;;;;1.52;1.25;;;11.60;99.90;;;;;;5074465;28;20663;-78
2022/05/07 05:52:49;;;;;;;2.58;1.50;;;11.60;99.90;;;;;;5073705;28;20044;-78
2022/05/07 05:55:15;;;;;;;1.50;1.30;;;11.60;99.90;;;;;;5074463;28;20528;-78
2022/05/07 05:57:41;;;;;;;1.65;1.40;;;11.70;99.90;;;;;;5073518;28;20100;-78
2022/05/07 06:00:07;;;;;;;2.15;1.40;;;11.80;99.90;;;;;;5073866;28;20078;-78
2022/05/07 06:02:33;;;;;;;2.70;1.30;;;11.90;99.90;;;;;;5088780;28;20467;-78
2022/05/07 06:04:59;;;;;;;2.63;1.40;;;12.10;99.90;;;;;;5080287;28;20096;-78
2022/05/07 06:07:25;;;;;;;2.08;1.38;;;12.50;99.90;;;;;;5073305;28;20063;-78
2022/05/07 06:09:51;;;;;;;1.38;1.27;;;13.00;99.90;;;;;;5074035;28;20040;-79
2022/05/07 06:12:17;;;;;;;2.17;1.15;;;13.50;99.90;;;;;;5073119;28;20032;-79
2022/05/07 06:14:42;;;;;;;1.35;1.25;;;13.80;99.90;;;;;;5073965;28;20043;-78
2022/05/07 06:17:08;;;;;;;2.03;1.40;;;14.10;99.90;;;;;;5073370;28;20028;-78
2022/05/07 06:19:34;;;;;;;2.15;1.33;;;14.20;99.90;;;;;;5066825;28;20029;-78
2022/05/07 06:22:00;;;;;;;1.13;0.95;;;14.30;99.90;;;;;;5072469;28;20032;-78
2022/05/07 06:32:29;;;;;;;2.55;1.60;;;14.10;99.90;;;;;;5069274;28;20045;-74
2022/05/07 06:34:55;;;;;;;3.15;1.60;;;14.10;99.90;;;;;;5073001;28;20021;-75
2022/05/07 06:37:21;;;;;;;1.75;1.40;;;14.10;99.90;;;;;;5072538;28;20051;-74
2022/05/07 06:39:46;;;;;;;3.28;1.98;;;14.10;99.90;;;;;;5072582;28;20032;-74
2022/05/07 06:42:12;;;;;;;2.85;1.65;;;14.00;99.90;;;;;;5052733;28;20021;-74
2022/05/07 06:44:38;;;;;;;3.17;2.00;;;14.10;99.90;;;;;;5053397;28;20032;-74
2022/05/07 06:47:04;;;;;;;6.20;2.15;;;14.00;99.90;;;;;;5052441;28;20017;-74
2022/05/07 06:49:29;;;;;;;3.58;2.08;;;14.00;99.90;;;;;;5052684;28;20029;-75
2022/05/07 06:51:55;;;;;;;3.88;2.00;;;14.10;99.90;;;;;;5051269;28;20028;-74
2022/05/07 06:54:21;;;;;;;4.60;1.95;;;14.10;99.90;;;;;;5053501;28;20021;-74
2022/05/07 06:56:47;;;;;;;2.83;2.17;;;14.10;99.90;;;;;;5052656;28;20118;-74
2022/05/07 06:59:12;;;;;;;3.33;2.05;;;14.00;99.90;;;;;;5052318;28;20017;-75
2022/05/07 07:01:39;;;;;;;2.35;1.88;;;14.10;99.90;;;;;;5052396;28;20032;-74
2022/05/07 07:04:05;;;;;;;3.72;2.30;;;14.10;99.90;;;;;;5053107;28;20017;-75
2022/05/07 07:06:31;;;;;;;2.80;2.25;;;14.20;99.90;;;;;;5052584;28;20021;-75
2022/05/07 07:08:56;;;;;;;2.50;2.13;;;14.30;99.90;;;;;;5053018;28;20023;-74
2022/05/07 07:11:23;;;;;;;4.88;1.90;;;14.60;99.90;;;;;;5056866;28;20040;-74
2022/05/07 07:13:49;;;;;;;3.97;2.63;;;14.80;99.90;;;;;;5052254;28;20028;-74
2022/05/07 07:16:15;;;;;;;3.40;2.55;;;15.00;99.90;;;;;;5052882;28;20098;-74
2022/05/07 07:18:41;;;;;;;4.80;2.55;;;15.20;99.90;;;;;;5052362;28;20044;-74
2022/05/07 07:21:07;;;;;;;2.88;2.35;;;15.40;99.90;;;;;;5051790;28;20099;-74
2022/05/07 07:23:33;;;;;;;3.75;2.33;;;15.60;99.90;;;;;;5051260;28;20029;-74
2022/05/07 07:25:58;;;;;;;3.75;2.60;;;15.80;99.90;;;;;;5049516;28;20440;-74
2022/05/07 07:28:24;;;;;;;2.75;2.22;;;16.10;99.90;;;;;;5051097;28;20021;-74
2022/05/07 07:30:51;;;;;;;5.93;3.10;;;16.30;99.90;;;;;;5073455;22;20048;-74
2022/05/07 07:33:17;;;;;;;2.47;2.10;;;16.60;99.90;;;;;;5064319;28;20443;-74
2022/05/07 07:35:43;;;;;;;3.03;2.13;;;16.90;99.90;;;;;;5069200;28;20373;-75
2022/05/07 07:38:10;;;;;;;2.55;1.92;;;17.10;99.90;;;;;;5069652;28;20024;-75
2022/05/07 07:40:36;;;;;;;2.17;1.60;;;17.20;99.90;;;;;;5070503;28;20012;-74
2022/05/07 07:43:02;;;;;;;4.88;1.92;;;17.40;99.90;;;;;;5070191;28;20095;-74
2022/05/07 07:48:13;;;;;;;2.60;1.92;;;17.30;99.90;;;;;;5069917;28;20043;-75
2022/05/07 07:50:38;;;;;;;3.70;1.88;;;17.70;99.90;;;;;;5070338;28;20024;-75
2022/05/07 07:53:13;;;;;;;2.55;1.80;;;17.90;99.90;;;;;;5080082;28;20027;-75
2022/05/07 07:55:39;;;;;;;3.03;1.75;;;17.90;99.90;;;;;;5091447;28;20029;-75
2022/05/07 07:58:08;;;;;;;2.97;1.65;;;18.00;99.90;;;;;;5074999;28;20028;-75
2022/05/07 08:00:38;;;;;;;3.83;1.70;;;18.00;99.90;;;;;;5070514;28;20027;-75
2022/05/07 08:03:09;;;;;;;1.90;1.60;;;17.80;99.90;;;;;;5069718;28;20104;-75
2022/05/07 08:05:36;;;;;;;2.20;1.50;;;17.80;99.90;;;;;;5070571;28;20497;-75
2022/05/07 08:13:34;;;;;;;2.03;1.75;;;17.90;99.90;;;;;;5074396;28;20039;-75
2022/05/07 08:16:01;;;;;;;2.65;1.98;;;17.80;99.90;;;;;;5069164;28;20028;-75
2022/05/07 08:18:27;;;;;;;1.30;1.20;;;17.90;99.90;;;;;;5069148;28;20040;-75
2022/05/07 08:20:53;;;;;;;2.22;1.50;;;17.80;99.90;;;;;;5070451;28;20485;-75
2022/05/07 08:23:19;;;;;;;2.05;1.52;;;17.80;99.90;;;;;;5074772;28;20083;-76
2022/05/07 08:25:45;;;;;;;1.50;1.40;;;17.60;99.90;;;;;;5070601;28;20024;-75
2022/05/07 08:28:11;;;;;;;2.88;1.65;;;17.60;99.90;;;;;;5071478;28;20020;-76
2022/05/07 08:30:37;;;;;;;1.38;1.27;;;17.60;99.90;;;;;;5070796;28;20036;-76
2022/05/07 08:33:04;;;;;;;2.35;1.30;;;17.70;99.90;;;;;;5070752;28;20017;-75
2022/05/07 08:35:31;;;;;;;1.63;1.35;;;17.90;99.90;;;;;;5069989;28;20105;-75
2022/05/07 08:37:56;;;;;;;1.70;1.48;;;18.30;99.90;;;;;;5070778;28;20044;-76
2022/05/07 08:40:24;;;;;;;1.10;1.10;;;18.80;99.90;;;;;;5070032;28;20016;-75
2022/05/07 08:42:50;;;;;;;2.85;1.25;;;19.00;99.90;;;;;;5071255;28;20020;-75
2022/05/07 08:45:16;;;;;;;1.85;0.88;;;19.10;99.90;;;;;;5070682;28;20416;-76
2022/05/07 08:47:43;;;;;;;1.20;1.02;;;18.70;99.90;;;;;;5077133;28;20024;-76
2022/05/07 08:50:11;;;;;;;0.88;0.82;;;18.30;99.90;;;;;;5072160;28;20539;-76
2022/05/07 08:52:42;;;;;;;2.03;0.85;;;18.30;99.90;;;;;;5073719;28;20051;-75
2022/05/07 08:55:16;;;;;;;2.35;0.93;;;19.00;99.90;;;;;;5070704;28;20374;-75
2022/05/07 08:57:44;;;;;;;2.30;0.90;;;20.30;96.70;;;;;;5070901;28;20093;-82
2022/05/07 09:00:11;;;;;;;1.35;0.60;;;21.50;94.60;;;;;;5093873;23;20044;-79
2022/05/07 09:02:38;;;;;;;1.67;0.80;;;22.40;90.60;;;;;;5064978;28;20041;-77
2022/05/07 09:05:05;;;;;;;0.50;0.50;;;24.00;81.50;;;;;;5069499;28;20077;-77
2022/05/07 09:07:31;;;;;;;0.40;0.40;;;24.20;74.20;;;;;;5071295;28;20073;-77
2022/05/07 09:09:57;;;;;;;0.40;0.30;;;24.30;73.90;;;;;;5069314;28;20025;-77
2022/05/07 09:12:24;;;;;;;0.47;0.40;;;23.70;72.00;;;;;;5050971;28;20103;-77
2022/05/07 09:14:50;;;;;;;0.60;0.50;;;23.60;74.20;;;;;;5049887;28;20029;-77
2022/05/07 09:17:19;;;;;;;1.10;0.40;;;23.20;73.80;;;;;;5050547;28;20076;-77
2022/05/07 09:19:44;;;;;;;0.47;0.40;;;23.20;76.30;;;;;;5048963;28;20029;-77
2022/05/07 09:22:11;;;;;;;1.20;0.45;;;23.10;73.60;;;;;;5053042;28;20013;-77
2022/05/07 09:24:40;;;;;;;3.38;0.60;;;23.00;78.90;;;;;;5038699;28;20119;-77
2022/05/07 09:27:07;;;;;;;0.50;0.50;;;22.90;77.00;;;;;;5054511;28;20017;-77
2022/05/07 09:29:34;;;;;;;0.38;0.30;;;23.10;75.30;;;;;;5059490;28;20519;-77
2022/05/07 09:32:13;;;;;;;1.50;0.70;;;23.20;74.90;;;;;;5054112;28;20036;-77
2022/05/07 09:37:37;;;;;;;0.73;0.38;;;22.40;75.40;;;;;;5054256;28;20060;-77
2022/05/07 09:40:06;;;;;;;1.38;0.40;;;21.80;77.50;;;;;;5054042;28;20143;-78
2022/05/07 09:42:34;;;;;;;0.40;0.40;;;21.40;82.30;;;;;;5054460;28;20100;-77
2022/05/07 09:45:01;;;;;;;7.07;2.17;;;21.10;84.80;;;;;;5060325;28;20116;-77
2022/05/07 09:47:30;;;;;;;0.80;0.30;;;20.90;90.50;;;;;;5054299;28;20021;-77
2022/05/07 09:58:17;;;;;;;0.47;0.47;;;20.60;91.10;;;;;;5053203;28;20405;-77
2022/05/07 10:01:15;;;;;;;0.82;0.40;;;21.10;90.10;;;;;;5053300;28;20493;-78
2022/05/07 10:03:53;;;;;;;0.47;0.47;;;21.90;86.20;;;;;;5017036;28;20044;-78
2022/05/07 10:06:37;;;;;;;0.77;0.60;;;22.60;82.70;;;;;;5053547;28;20071;-77
2022/05/07 10:09:41;;;;;;;0.47;0.47;;;24.30;78.80;;;;;;5053880;28;20021;-78
2022/05/07 10:12:08;;;;;;;0.50;0.40;;;25.80;66.50;;;;;;5054162;28;20021;-78
2022/05/07 10:14:34;;;;;;;0.30;0.30;;;26.20;67.00;;;;;;5053589;28;20028;-78
2022/05/07 10:17:07;;;;;;;0.57;0.30;;;25.90;64.20;;;;;;5053890;28;20366;-78
2022/05/07 10:19:40;;;;;;;0.40;0.22;;;25.30;63.50;;;;;;5051925;28;20607;-77
2022/05/07 10:22:23;;;;;;;0.90;0.45;;;24.90;63.20;;;;;;5056582;28;20035;-78
2022/05/07 10:25:04;;;;;;;0.30;0.30;;;24.70;61.40;;;;;;5054135;28;20117;-78
2022/05/07 10:27:32;;;;;;;0.20;0.20;;;25.00;64.00;;;;;;5053864;28;20482;-78
2022/05/07 10:30:14;;;;;;;0.43;0.40;;;25.70;62.20;;;;;;5053002;28;20111;-78
2022/05/07 10:33:06;;;;;;;0.73;0.30;;;25.20;59.80;;;;;;5053628;28;20083;-78
2022/05/07 10:35:52;;;;;;;0.93;0.30;;;24.20;64.50;;;;;;5049815;28;20045;-78
2022/05/07 10:38:28;;;;;;;2.10;0.43;;;23.40;64.80;;;;;;5053802;28;20025;-78
2022/05/07 10:41:00;;;;;;;0.30;0.30;;;22.40;68.40;;;;;;5053003;28;20057;-78
2022/05/07 10:43:34;;;;;;;0.95;0.50;;;21.70;71.50;;;;;;5053414;28;20485;-78
2022/05/07 10:46:12;;;;;;;0.50;0.50;;;21.10;76.00;;;;;;5046210;28;20091;-76
2022/05/07 10:49:07;;;;;;;1.05;0.60;;;20.60;80.40;;;;;;5052792;28;20104;-77
2022/05/07 10:51:34;;;;;;;0.60;0.60;;;20.10;85.00;;;;;;5032821;28;20037;-77
2022/05/07 10:54:05;;;;;;;0.70;0.70;;;19.60;89.80;;;;;;5053481;28;20017;-77
2022/05/07 10:56:33;;;;;;;1.08;0.60;;;19.30;91.70;;;;;;5052523;28;20131;-77
2022/05/07 10:59:00;;;;;;;0.75;0.73;;;19.10;92.10;;;;;;5052900;28;20056;-76
2022/05/07 11:01:28;;;;;;;1.52;0.60;;;18.80;94.00;;;;;;5077867;22;20044;-78
2022/05/07 11:04:08;;;;;;;2.30;0.98;;;18.60;95.40;;;;;;5072085;28;20031;-78
2022/05/07 11:06:47;;;;;;;0.65;0.63;;;18.30;95.40;;;;;;5072167;28;20029;-78
2022/05/07 11:09:24;;;;;;;0.60;0.60;;;18.20;96.00;;;;;;5072142;28;20028;-78
2022/05/07 11:11:54;;;;;;;0.93;0.80;;;18.10;97.30;;;;;;5073246;28;20024;-78
2022/05/07 11:14:23;;;;;;;1.05;1.00;;;17.80;96.60;;;;;;5078860;28;20027;-78
2022/05/07 11:16:50;;;;;;;0.73;0.73;;;17.70;98.00;;;;;;5090491;28;20481;-78
2022/05/07 11:19:28;;;;;;;0.70;0.70;;;17.60;99.30;;;;;;5091323;28;20028;-78
2022/05/07 11:21:56;;;;;;;0.70;0.70;;;17.60;99.90;;;;;;5091230;28;20028;-78
2022/05/07 11:24:25;;;;;;;1.10;0.85;;;17.50;99.90;;;;;;5091322;28;20024;-77
2022/05/07 11:26:55;;;;;;;1.00;0.85;;;17.40;99.90;;;;;;5091118;28;20016;-78
2022/05/07 11:29:21;;;;;;;1.20;1.02;;;17.40;99.90;;;;;;5090671;28;20017;-77
2022/05/07 11:31:55;;;;;;;0.85;0.85;;;17.40;99.90;;;;;;5085274;28;20115;-78
2022/05/07 11:34:34;;;;;;;1.10;1.00;;;17.30;99.90;;;;;;5091047;28;20021;-77
2022/05/07 11:37:13;;;;;;;1.13;0.90;;;17.40;99.90;;;;;;5085303;28;20031;-78
2022/05/07 11:39:54;;;;;;;2.42;0.90;;;17.40;99.90;;;;;;5083430;28;20035;-78
2022/05/07 11:42:31;;;;;;;1.55;0.77;;;17.40;99.90;;;;;;5084859;28;20028;-78
2022/05/07 11:47:56;;;;;;;0.77;0.77;;;17.70;99.90;;;;;;5090484;28;20138;-78
2022/05/07 11:50:24;;;;;;;0.90;0.80;;;17.90;99.90;;;;;;5089787;28;20358;-78
2022/05/07 11:52:51;;;;;;;1.25;0.95;;;17.90;99.90;;;;;;5085147;28;20044;-79
2022/05/07 11:55:19;;;;;;;0.98;0.85;;;17.90;99.30;;;;;;5080499;28;20060;-77
2022/05/07 11:57:47;;;;;;;0.73;0.73;;;17.80;99.70;;;;;;5090593;28;20021;-78
2022/05/07 12:00:19;;;;;;;1.23;0.77;;;17.80;99.90;;;;;;5108414;23;20028;-76
2022/05/07 12:03:03;;;;;;;1.25;1.02;;;18.00;99.90;;;;;;5043089;28;20466;-76
2022/05/07 12:06:01;;;;;;;1.58;1.00;;;18.00;99.90;;;;;;5050888;28;20418;-76
2022/05/07 12:08:34;;;;;;;1.05;0.75;;;18.10;99.90;;;;;;4997373;28;20033;-76
2022/05/07 12:11:01;;;;;;;0.80;0.80;;;18.20;99.90;;;;;;5059647;28;20031;-76
2022/05/07 12:13:28;;;;;;;1.10;0.80;;;18.10;99.60;;;;;;5070941;28;20548;-77
2022/05/07 12:18:47;;;;;;;2.63;0.90;;;18.10;99.90;;;;;;5071476;28;20030;-76
2022/05/07 12:21:13;;;;;;;1.05;0.95;;;18.10;99.70;;;;;;5070420;28;20118;-76
2022/05/07 12:31:45;;;;;;;1.10;1.00;;;18.20;99.90;;;;;;5064211;28;20102;-76
2022/05/07 12:34:11;;;;;;;1.00;0.80;;;18.50;99.50;;;;;;5071141;28;20481;-76
2022/05/07 12:36:36;;;;;;;1.30;0.65;;;18.70;98.80;;;;;;5070944;28;20028;-76
2022/05/07 12:39:02;;;;;;;2.17;1.08;;;19.00;99.60;;;;;;5070388;28;20392;-76
2022/05/07 12:41:31;;;;;;;2.78;0.90;;;19.30;98.80;;;;;;5059186;28;20028;-77
2022/05/07 12:44:01;;;;;;;0.93;0.93;;;19.60;96.90;;;;;;5065703;28;20044;-77
2022/05/07 12:46:27;;;;;;;0.88;0.88;;;19.20;96.20;;;;;;5068476;28;20539;-79
2022/05/07 12:48:56;;;;;;;1.38;0.90;;;19.20;97.90;;;;;;5071301;28;20027;-79
2022/05/07 12:51:25;;;;;;;0.70;0.70;;;19.60;97.80;;;;;;5070354;28;20040;-79
2022/05/07 12:53:54;;;;;;;1.33;1.23;;;20.90;95.70;;;;;;5067967;28;20027;-78
2022/05/07 12:56:20;;;;;;;1.20;1.10;;;21.40;91.80;;;;;;5070152;28;20028;-78
2022/05/07 12:58:47;;;;;;;1.30;0.88;;;22.00;92.80;;;;;;5064175;28;20021;-78
2022/05/07 13:01:13;;;;;;;1.67;0.80;;;22.60;90.20;;;;;;5088331;23;20432;-75
2022/05/07 13:03:38;;;;;;;0.95;0.85;;;24.80;80.80;;;;;;5063456;28;20034;-75
2022/05/07 13:06:04;;;;;;;0.90;0.50;;;25.00;69.80;;;;;;5068756;28;20013;-75
2022/05/07 13:08:30;;;;;;;1.52;0.80;;;25.50;67.50;;;;;;5059989;28;20540;-76
2022/05/07 13:10:57;;;;;;;0.90;0.60;;;25.30;67.70;;;;;;5075147;28;20017;-76
2022/05/07 13:13:23;;;;;;;0.80;0.80;;;25.50;66.90;;;;;;5089738;28;20024;-76
2022/05/07 13:15:51;;;;;;;0.90;0.90;;;24.90;66.30;;;;;;5088779;28;20020;-76
2022/05/07 13:18:18;;;;;;;0.98;0.88;;;23.20;71.80;;;;;;5089678;28;20020;-75
2022/05/07 13:20:44;;;;;;;1.52;1.40;;;23.20;74.00;;;;;;5080510;28;20556;-76
2022/05/07 13:23:12;;;;;;;2.05;1.40;;;22.60;77.60;;;;;;5089869;28;20095;-76
2022/05/07 13:25:38;;;;;;;2.00;1.30;;;22.50;80.50;;;;;;5089456;28;20050;-75
2022/05/07 13:28:04;;;;;;;0.90;0.80;;;22.00;83.40;;;;;;5089944;28;20012;-76
2022/05/07 13:30:30;;;;;;;1.02;1.00;;;21.70;88.00;;;;;;5088175;28;20457;-76
2022/05/07 13:32:56;;;;;;;1.25;1.00;;;21.40;90.60;;;;;;5084118;28;20021;-76
2022/05/07 13:35:22;;;;;;;1.98;1.23;;;20.90;93.00;;;;;;5089023;28;20060;-76
2022/05/07 13:37:48;;;;;;;1.58;1.30;;;20.60;94.60;;;;;;5089195;28;20023;-76
2022/05/07 13:40:14;;;;;;;1.30;1.17;;;20.10;96.90;;;;;;5088911;28;20042;-75